This is the latest recevied weather packets stored in our database for station/object WO5CID. If no packets are shown the sender has not sent any weather packets the latest 10 day(s).
| Time | Temp. | Humidity | Pressure | Rain* | Wind** | Luminosity | Snow |
|---|---|---|---|---|---|---|---|
| 1777740268 | 22.22° C | 93% | 1010.4 hPa | 4.83 mm | - | 26 W/m² | - |
| 1777739965 | 22.22° C | 92% | 1010.3 hPa | 11.94 mm | - | 24 W/m² | - |
| 1777739661 | 22.78° C | 90% | 1010.5 hPa | 19.81 mm | - | 5 W/m² | - |
| 1777739359 | 23.89° C | 87% | 1010.3 hPa | 13.72 mm | - | 29 W/m² | - |
| 1777739056 | 25° C | 80% | 1010.1 hPa | 1.78 mm | - | 13 W/m² | - |
| 1777738753 | 25° C | 78% | 1010.2 hPa | 0 mm | - | 36 W/m² | - |
| 1777738449 | 25.56° C | 75% | 1009.5 hPa | 0 mm | - | 48 W/m² | - |
| 1777738147 | 25.56° C | 74% | 1009.8 hPa | 0 mm | - | 50 W/m² | - |
| 1777737845 | 25.56° C | 73% | 1009.9 hPa | 0 mm | - | 61 W/m² | - |
| 1777737543 | 25.56° C | 74% | 1009.9 hPa | 0 mm | - | 89 W/m² | - |
| 1777737241 | 25.56° C | 73% | 1009.9 hPa | 0 mm | - | 121 W/m² | - |
| 1777736937 | 25.56° C | 74% | 1009.8 hPa | 0 mm | - | 148 W/m² | - |
| 1777735717 | 25° C | 76% | 1009.9 hPa | 0 mm | - | 106 W/m² | - |
| 1777735415 | 25° C | 77% | 1010 hPa | 0 mm | - | 100 W/m² | - |
| 1777735112 | 25° C | 77% | 1009.8 hPa | 0 mm | - | 127 W/m² | - |
| 1777734809 | 25° C | 76% | 1009.9 hPa | 0 mm | - | 130 W/m² | - |
| 1777734507 | 25° C | 78% | 1010 hPa | 0 mm | - | 163 W/m² | - |
| 1777734203 | 24.44° C | 79% | 1010.1 hPa | 0 mm | - | 171 W/m² | - |
| 1777733899 | 24.44° C | 81% | 1010 hPa | 0 mm | - | 153 W/m² | - |
| 1777733596 | 23.89° C | 81% | 1010 hPa | 0 mm | - | 123 W/m² | - |
| 1777733292 | 23.89° C | 82% | 1010.1 hPa | 0 mm | - | 102 W/m² | - |
| 1777732989 | 23.89° C | 83% | 1010.1 hPa | 0 mm | - | 106 W/m² | - |
| 1777732685 | 23.89° C | 84% | 1010.4 hPa | 0 mm | - | 104 W/m² | - |
| 1777732382 | 23.33° C | 88% | 1010.5 hPa | 0 mm | - | 118 W/m² | - |
| 1777732080 | 23.33° C | 89% | 1010.5 hPa | 0 mm | - | 105 W/m² | - |
* Rain latest hour (hover to see other rain measurements)
** Current wind speed in m/s (hover to see current wind gust speed)